createdAt,value
2023-04-08T00:01:02.638Z,2.89
2023-04-08T00:03:32.669Z,2.89
2023-04-08T00:06:03.351Z,2.88
2023-04-08T00:08:32.902Z,2.87
2023-04-08T00:11:02.060Z,2.88
2023-04-08T00:13:31.204Z,2.90
2023-04-08T00:16:01.436Z,2.90
2023-04-08T00:18:30.319Z,2.87
2023-04-08T00:21:01.888Z,2.87
2023-04-08T00:23:30.781Z,2.89
2023-04-08T00:25:59.696Z,2.89
2023-04-08T00:28:28.556Z,2.88
2023-04-08T00:30:57.544Z,2.87
2023-04-08T00:33:28.009Z,2.88
2023-04-08T00:36:00.598Z,2.88
2023-04-08T00:38:29.961Z,2.86
2023-04-08T00:40:58.683Z,2.86
2023-04-08T00:43:30.625Z,2.85
2023-04-08T00:45:59.375Z,2.84
2023-04-08T00:48:29.312Z,2.83
2023-04-08T00:50:58.904Z,2.80
2023-04-08T00:53:27.778Z,2.81
2023-04-08T00:55:56.251Z,2.78
2023-04-08T00:58:25.318Z,2.77
2023-04-08T01:01:00.679Z,2.75
2023-04-08T01:03:43.121Z,2.75
2023-04-08T01:06:17.325Z,2.71
2023-04-08T01:08:47.390Z,2.71
2023-04-08T01:11:17.259Z,2.71
2023-04-08T01:13:47.935Z,2.72
2023-04-08T01:16:18.788Z,2.72
2023-04-08T01:18:51.062Z,2.73
2023-04-08T01:21:23.344Z,2.73
2023-04-08T01:24:03.183Z,2.71
2023-04-08T01:26:33.692Z,2.72
2023-04-08T01:29:04.003Z,2.73
2023-04-08T01:31:33.970Z,2.72
2023-04-08T01:34:06.964Z,2.72
2023-04-08T01:36:37.110Z,2.74
2023-04-08T01:39:09.902Z,2.73
2023-04-08T01:41:40.798Z,2.71
2023-04-08T01:44:10.955Z,2.68
2023-04-08T01:46:43.056Z,2.66
2023-04-08T01:49:12.925Z,2.67
2023-04-08T01:51:42.918Z,2.66
2023-04-08T01:54:12.003Z,2.65
2023-04-08T01:56:47.584Z,2.65
2023-04-08T01:59:18.932Z,2.68
2023-04-08T02:01:49.523Z,2.69
2023-04-08T02:04:20.787Z,2.69
2023-04-08T02:06:49.851Z,2.68
2023-04-08T02:09:18.659Z,2.69
2023-04-08T02:11:51.907Z,2.71
2023-04-08T02:14:21.142Z,2.70
2023-04-08T02:16:54.964Z,2.72
2023-04-08T02:19:30.920Z,2.72
2023-04-08T02:22:13.658Z,2.71
2023-04-08T02:24:44.456Z,2.71
2023-04-08T02:27:14.922Z,2.72
2023-04-08T02:29:44.636Z,2.72
2023-04-08T02:32:13.903Z,2.72
2023-04-08T02:34:44.654Z,2.74
2023-04-08T02:37:13.991Z,2.75
2023-04-08T02:39:42.435Z,2.76
2023-04-08T02:42:12.069Z,2.75
2023-04-08T02:44:42.096Z,2.73
2023-04-08T02:47:10.684Z,2.73
2023-04-08T02:49:39.615Z,2.76
2023-04-08T02:52:08.583Z,2.76
2023-04-08T02:54:37.568Z,2.77
2023-04-08T02:57:06.333Z,2.77
2023-04-08T02:59:39.156Z,2.81
2023-04-08T03:02:09.660Z,2.81
2023-04-08T03:04:38.428Z,2.83
2023-04-08T03:07:08.683Z,2.84
2023-04-08T03:09:37.907Z,2.86
2023-04-08T03:12:07.077Z,2.87
2023-04-08T03:14:36.018Z,2.85
2023-04-08T03:17:04.752Z,2.85
2023-04-08T03:19:35.429Z,2.84
2023-04-08T03:22:04.584Z,2.85
2023-04-08T03:24:33.474Z,2.85
2023-04-08T03:27:02.046Z,2.85
2023-04-08T03:29:30.746Z,2.84
2023-04-08T03:32:00.099Z,2.82
2023-04-08T03:34:28.977Z,2.80
2023-04-08T03:36:59.794Z,2.77
2023-04-08T03:39:28.410Z,2.75
2023-04-08T03:41:58.221Z,2.73
2023-04-08T03:44:27.191Z,2.72
2023-04-08T03:46:55.699Z,2.72
2023-04-08T03:49:24.235Z,2.69
2023-04-08T03:51:53.089Z,2.68
2023-04-08T03:54:23.168Z,2.66
2023-04-08T03:56:51.786Z,2.66
2023-04-08T03:59:20.466Z,2.63
2023-04-08T04:01:51.492Z,2.61
2023-04-08T04:04:19.973Z,2.61
2023-04-08T04:06:48.740Z,2.61
2023-04-08T04:09:18.939Z,2.62
2023-04-08T04:11:52.217Z,2.62
2023-04-08T04:14:20.904Z,2.63
2023-04-08T04:16:49.614Z,2.63
2023-04-08T04:19:18.947Z,2.64
2023-04-08T04:21:47.778Z,2.63
2023-04-08T04:24:16.363Z,2.63
2023-04-08T04:26:44.751Z,2.64
2023-04-08T04:29:14.938Z,2.67
2023-04-08T04:31:43.521Z,2.70
2023-04-08T04:34:12.275Z,2.72
2023-04-08T04:36:43.557Z,2.76
2023-04-08T04:39:15.747Z,2.78
2023-04-08T04:41:44.844Z,2.83
2023-04-08T04:44:14.954Z,2.89
2023-04-08T04:46:43.828Z,2.92
2023-04-08T04:49:12.401Z,2.95
2023-04-08T04:51:41.676Z,3.00
2023-04-08T04:54:10.094Z,3.05
2023-04-08T04:56:38.567Z,3.09
2023-04-08T04:59:08.669Z,3.13
2023-04-08T05:01:41.243Z,3.20
2023-04-08T05:04:09.708Z,3.23
2023-04-08T05:06:38.304Z,3.26
2023-04-08T05:09:07.232Z,3.28
2023-04-08T05:11:36.414Z,3.30
2023-04-08T05:14:05.214Z,3.29
2023-04-08T05:16:33.655Z,3.29
2023-04-08T05:19:06.166Z,3.34
2023-04-08T05:21:34.602Z,3.35
2023-04-08T05:24:03.691Z,3.38
2023-04-08T05:26:33.063Z,3.39
2023-04-08T05:29:01.688Z,3.40
2023-04-08T05:31:30.697Z,3.39
2023-04-08T05:33:58.976Z,3.46
2023-04-08T05:36:29.540Z,3.48
2023-04-08T05:38:59.287Z,3.51
2023-04-08T05:41:29.515Z,3.55
2023-04-08T05:44:00.821Z,3.57
2023-04-08T05:46:29.742Z,3.59
2023-04-08T05:48:58.274Z,3.65
2023-04-08T05:51:26.671Z,3.63
2023-04-08T05:53:57.073Z,3.62
2023-04-08T05:56:25.690Z,3.67
2023-04-08T05:58:55.861Z,3.72
2023-04-08T06:01:25.638Z,3.77
2023-04-08T06:03:56.361Z,3.82
2023-04-08T06:06:26.188Z,3.89
2023-04-08T06:09:00.231Z,3.89
2023-04-08T06:11:29.027Z,3.92
2023-04-08T06:13:59.015Z,3.90
2023-04-08T06:16:27.433Z,3.94
2023-04-08T06:18:56.353Z,3.97
2023-04-08T06:21:25.529Z,4.01
2023-04-08T06:23:53.959Z,4.05
2023-04-08T06:26:24.562Z,4.09
2023-04-08T06:28:53.418Z,4.11
2023-04-08T06:31:22.197Z,4.19
2023-04-08T06:33:52.561Z,4.26
2023-04-08T06:36:22.192Z,4.31
2023-04-08T06:38:51.426Z,4.41
2023-04-08T06:41:20.492Z,4.54
2023-04-08T06:43:54.148Z,4.57
2023-04-08T06:46:23.035Z,4.62
2023-04-08T06:48:52.872Z,4.71
2023-04-08T06:51:21.772Z,4.78
2023-04-08T06:53:50.646Z,4.85
2023-04-08T06:56:21.427Z,5.02
2023-04-08T06:58:52.103Z,5.18
2023-04-08T07:01:21.340Z,5.26
2023-04-08T07:03:49.998Z,5.39
2023-04-08T07:06:18.923Z,5.57
2023-04-08T07:08:47.774Z,5.71
2023-04-08T07:11:16.408Z,5.70
2023-04-08T07:13:47.970Z,5.76
2023-04-08T07:16:18.179Z,5.82
2023-04-08T07:18:50.480Z,5.95
2023-04-08T07:21:20.155Z,6.04
2023-04-08T07:23:48.856Z,6.02
2023-04-08T07:26:18.757Z,6.12
2023-04-08T07:28:47.572Z,6.25
2023-04-08T07:31:19.578Z,6.26
2023-04-08T07:33:48.240Z,6.34
2023-04-08T07:36:18.629Z,6.42
2023-04-08T07:38:47.861Z,6.42
2023-04-08T07:41:16.947Z,6.49
2023-04-08T07:43:46.157Z,6.57
2023-04-08T07:46:14.902Z,6.64
2023-04-08T07:48:45.429Z,6.72
2023-04-08T07:51:15.322Z,6.73
2023-04-08T07:53:50.148Z,6.76
2023-04-08T07:56:22.575Z,6.89
2023-04-08T07:58:53.621Z,6.85
2023-04-08T08:01:25.189Z,6.93
2023-04-08T08:03:55.921Z,7.04
2023-04-08T08:06:24.794Z,7.19
2023-04-08T08:08:53.503Z,7.21
2023-04-08T08:11:22.581Z,7.19
2023-04-08T08:13:52.226Z,7.13
2023-04-08T08:16:21.416Z,7.26
2023-04-08T08:18:49.972Z,7.33
2023-04-08T08:21:21.726Z,7.32
2023-04-08T08:23:51.205Z,7.31
2023-04-08T08:26:20.120Z,7.30
2023-04-08T08:28:48.941Z,7.34
2023-04-08T08:31:18.091Z,7.36
2023-04-08T08:33:46.818Z,7.43
2023-04-08T08:36:15.711Z,7.56
2023-04-08T08:38:45.974Z,7.60
2023-04-08T08:41:15.506Z,7.65
2023-04-08T08:43:45.204Z,7.72
2023-04-08T08:46:13.604Z,7.78
2023-04-08T08:48:42.312Z,7.78
2023-04-08T08:51:11.995Z,7.73
2023-04-08T08:53:45.317Z,7.71
2023-04-08T08:56:18.674Z,7.71
2023-04-08T08:58:49.273Z,7.82
2023-04-08T09:01:34.863Z,7.91
2023-04-08T09:04:17.449Z,7.88
2023-04-08T09:06:50.328Z,7.93
2023-04-08T09:09:20.733Z,8.01
2023-04-08T09:12:04.056Z,7.95
2023-04-08T09:14:35.054Z,7.93
2023-04-08T09:17:03.902Z,7.87
2023-04-08T09:19:32.735Z,7.80
2023-04-08T09:22:08.241Z,7.87
2023-04-08T09:24:37.487Z,8.03
2023-04-08T09:27:08.082Z,8.08
2023-04-08T09:29:39.281Z,8.20
2023-04-08T09:32:09.172Z,8.30
2023-04-08T09:34:38.071Z,8.41
2023-04-08T09:37:07.414Z,8.56
2023-04-08T09:39:36.358Z,8.35
2023-04-08T09:42:13.450Z,8.24
2023-04-08T09:44:46.251Z,8.04
2023-04-08T09:47:20.945Z,7.77
2023-04-08T09:49:56.524Z,7.68
2023-04-08T09:52:30.640Z,7.71
2023-04-08T09:55:03.908Z,7.89
2023-04-08T09:57:45.233Z,7.99
2023-04-08T10:00:17.737Z,8.14
2023-04-08T10:02:57.310Z,8.26
2023-04-08T10:05:26.970Z,8.41
2023-04-08T10:07:57.830Z,8.49
2023-04-08T10:10:27.571Z,8.48
2023-04-08T10:12:57.646Z,8.39
2023-04-08T10:15:28.355Z,8.45
2023-04-08T10:17:58.403Z,8.51
2023-04-08T10:20:47.447Z,8.68
2023-04-08T10:23:17.549Z,8.83
2023-04-08T10:25:48.323Z,8.91
2023-04-08T10:28:28.885Z,8.92
2023-04-08T10:30:58.374Z,8.91
2023-04-08T10:33:34.828Z,8.91
2023-04-08T10:36:11.387Z,8.96
2023-04-08T10:38:43.567Z,8.97
2023-04-08T10:41:12.055Z,9.04
2023-04-08T10:43:42.676Z,9.02
2023-04-08T10:46:25.952Z,8.99
2023-04-08T10:49:01.647Z,8.96
2023-04-08T10:51:33.689Z,8.89
2023-04-08T10:54:07.783Z,8.97
2023-04-08T10:56:37.916Z,8.90
2023-04-08T10:59:08.698Z,8.77
2023-04-08T11:01:42.685Z,8.90
2023-04-08T11:04:18.889Z,9.04
2023-04-08T11:06:48.655Z,9.12
2023-04-08T11:09:18.023Z,9.13
2023-04-08T11:11:48.017Z,9.16
2023-04-08T11:14:19.833Z,9.24
2023-04-08T11:16:51.493Z,9.37
2023-04-08T11:19:21.600Z,9.41
2023-04-08T11:21:52.720Z,9.50
2023-04-08T11:24:22.486Z,9.69
2023-04-08T11:26:51.170Z,9.60
2023-04-08T11:29:22.465Z,9.52
2023-04-08T11:31:51.518Z,9.60
2023-04-08T11:34:23.907Z,9.56
2023-04-08T11:36:53.496Z,9.50
2023-04-08T11:39:24.495Z,9.56
2023-04-08T11:41:53.394Z,9.61
2023-04-08T11:44:31.889Z,9.68
2023-04-08T11:47:04.436Z,9.70
2023-04-08T11:49:45.883Z,9.71
2023-04-08T11:52:14.656Z,9.65
2023-04-08T11:54:43.925Z,9.50
2023-04-08T11:57:12.623Z,9.42
2023-04-08T11:59:43.699Z,9.44
2023-04-08T12:02:13.733Z,9.53
2023-04-08T12:04:42.926Z,9.56
2023-04-08T12:07:11.977Z,9.64
2023-04-08T12:09:40.924Z,9.81
2023-04-08T12:12:09.875Z,9.72
2023-04-08T12:14:38.257Z,9.56
2023-04-08T12:17:07.995Z,9.53
2023-04-08T12:19:39.598Z,9.55
2023-04-08T12:22:08.433Z,9.72
2023-04-08T12:24:37.361Z,9.89
2023-04-08T12:27:06.007Z,10.03
2023-04-08T12:29:35.074Z,10.00
2023-04-08T12:32:04.727Z,9.89
2023-04-08T12:34:37.948Z,9.69
2023-04-08T12:37:06.797Z,9.51
2023-04-08T12:39:35.322Z,9.25
2023-04-08T12:42:06.508Z,8.78
2023-04-08T12:44:35.575Z,8.45
2023-04-08T12:47:04.365Z,8.15
2023-04-08T12:49:39.593Z,7.96
2023-04-08T12:52:18.904Z,7.74
2023-04-08T12:54:50.416Z,7.63
2023-04-08T12:57:20.340Z,7.54
2023-04-08T12:59:49.006Z,7.51
2023-04-08T13:02:20.742Z,7.45
2023-04-08T13:04:49.998Z,7.40
2023-04-08T13:07:20.660Z,7.35
2023-04-08T13:09:49.142Z,7.34
2023-04-08T13:12:18.215Z,7.36
2023-04-08T13:14:47.843Z,7.44
2023-04-08T13:17:16.520Z,7.51
2023-04-08T13:19:45.394Z,7.59
2023-04-08T13:22:14.336Z,7.74
2023-04-08T13:24:44.708Z,7.81
2023-04-08T13:27:13.252Z,7.89
2023-04-08T13:29:42.152Z,7.99
2023-04-08T13:32:12.352Z,8.14
2023-04-08T13:34:42.538Z,8.28
2023-04-08T13:37:11.506Z,8.37
2023-04-08T13:39:39.963Z,8.39
2023-04-08T13:42:11.123Z,8.42
2023-04-08T13:44:40.264Z,8.40
2023-04-08T13:47:09.307Z,8.47
2023-04-08T13:49:38.032Z,8.38
2023-04-08T13:52:07.339Z,8.26
2023-04-08T13:54:37.357Z,8.13
2023-04-08T13:57:06.115Z,7.96
2023-04-08T13:59:35.924Z,7.81
2023-04-08T14:02:05.207Z,7.71
2023-04-08T14:04:34.580Z,7.59
2023-04-08T14:07:03.405Z,7.54
2023-04-08T14:09:35.876Z,7.46
2023-04-08T14:12:04.483Z,7.46
2023-04-08T14:14:33.309Z,7.48
2023-04-08T14:17:04.376Z,7.48
2023-04-08T14:19:33.381Z,7.49
2023-04-08T14:22:02.209Z,7.43
2023-04-08T14:24:30.834Z,7.42
2023-04-08T14:27:00.114Z,7.41
2023-04-08T14:29:28.861Z,7.42
2023-04-08T14:31:57.177Z,7.45
2023-04-08T14:34:27.781Z,7.49
2023-04-08T14:36:56.604Z,7.58
2023-04-08T14:39:25.500Z,7.66
2023-04-08T14:41:54.607Z,7.75
2023-04-08T14:44:23.424Z,7.80
2023-04-08T14:46:52.222Z,7.82
2023-04-08T14:49:20.903Z,7.74
2023-04-08T14:51:53.239Z,7.68
2023-04-08T14:54:22.188Z,7.58
2023-04-08T14:56:51.037Z,7.48
2023-04-08T14:59:19.359Z,7.35
2023-04-08T15:01:48.542Z,7.26
2023-04-08T15:04:17.299Z,7.16
2023-04-08T15:06:46.177Z,7.07
2023-04-08T15:09:16.808Z,7.00
2023-04-08T15:11:45.873Z,6.95
2023-04-08T15:14:15.105Z,6.89
2023-04-08T15:16:43.783Z,6.82
2023-04-08T15:19:12.614Z,6.77
2023-04-08T15:21:41.417Z,6.75
2023-04-08T15:24:10.314Z,6.67
2023-04-08T15:26:41.239Z,6.66
2023-04-08T15:29:10.490Z,6.64
2023-04-08T15:31:39.298Z,6.63
2023-04-08T15:34:08.276Z,6.65
2023-04-08T15:36:37.810Z,6.66
2023-04-08T15:39:06.652Z,6.71
2023-04-08T15:41:35.407Z,6.74
2023-04-08T15:44:06.560Z,6.77
2023-04-08T15:46:37.277Z,6.76
2023-04-08T15:49:06.419Z,6.77
2023-04-08T15:51:35.362Z,6.76
2023-04-08T15:54:04.063Z,6.77
2023-04-08T15:56:33.782Z,6.78
2023-04-08T15:59:03.067Z,6.77
2023-04-08T16:01:33.788Z,6.74
2023-04-08T16:04:02.793Z,6.70
2023-04-08T16:06:31.652Z,6.65
2023-04-08T16:09:00.216Z,6.60
2023-04-08T16:11:29.800Z,6.59
2023-04-08T16:13:58.290Z,6.59
2023-04-08T16:16:27.180Z,6.59
2023-04-08T16:18:57.208Z,6.60
2023-04-08T16:21:26.062Z,6.61
2023-04-08T16:23:54.557Z,6.62
2023-04-08T16:26:24.281Z,6.63
2023-04-08T16:28:53.014Z,6.65
2023-04-08T16:31:22.563Z,6.61
2023-04-08T16:33:51.997Z,6.53
2023-04-08T16:36:22.367Z,6.46
2023-04-08T16:38:51.379Z,6.40
2023-04-08T16:41:20.352Z,6.34
2023-04-08T16:43:49.452Z,6.29
2023-04-08T16:46:18.836Z,6.24
2023-04-08T16:48:48.467Z,6.20
2023-04-08T16:51:17.670Z,6.18
2023-04-08T16:53:48.124Z,6.12
2023-04-08T16:56:17.098Z,6.09
2023-04-08T16:58:46.337Z,6.05
2023-04-08T17:01:15.186Z,6.04
2023-04-08T17:03:44.448Z,6.02
2023-04-08T17:06:17.388Z,5.98
2023-04-08T17:08:47.714Z,5.97
2023-04-08T17:11:16.649Z,5.95
2023-04-08T17:13:46.322Z,5.94
2023-04-08T17:16:17.979Z,5.93
2023-04-08T17:18:46.970Z,5.93
2023-04-08T17:21:15.769Z,5.92
2023-04-08T17:23:44.672Z,5.90
2023-04-08T17:26:15.516Z,5.91
2023-04-08T17:28:43.925Z,5.89
2023-04-08T17:31:15.778Z,5.88
2023-04-08T17:33:44.574Z,5.87
2023-04-08T17:36:13.415Z,5.84
2023-04-08T17:38:42.073Z,5.80
2023-04-08T17:41:13.419Z,5.79
2023-04-08T17:43:45.752Z,5.79
2023-04-08T17:46:14.646Z,5.78
2023-04-08T17:48:43.470Z,5.77
2023-04-08T17:51:12.357Z,5.75
2023-04-08T17:53:40.726Z,5.74
2023-04-08T17:56:09.412Z,5.73
2023-04-08T17:58:37.989Z,5.71
2023-04-08T18:01:08.689Z,5.69
2023-04-08T18:03:37.515Z,5.67
2023-04-08T18:06:08.741Z,5.66
2023-04-08T18:08:38.962Z,5.66
2023-04-08T18:11:08.164Z,5.65
2023-04-08T18:13:36.709Z,5.61
2023-04-08T18:16:05.720Z,5.61
2023-04-08T18:18:38.446Z,5.59
2023-04-08T18:21:07.495Z,5.55
2023-04-08T18:23:37.611Z,5.52
2023-04-08T18:26:07.759Z,5.50
2023-04-08T18:28:36.546Z,5.48
2023-04-08T18:31:05.354Z,5.47
2023-04-08T18:33:36.451Z,5.47
2023-04-08T18:36:09.145Z,5.47
2023-04-08T18:38:40.073Z,5.45
2023-04-08T18:41:10.634Z,5.44
2023-04-08T18:43:39.094Z,5.43
2023-04-08T18:46:07.622Z,5.41
2023-04-08T18:48:37.828Z,5.38
2023-04-08T18:51:08.002Z,5.38
2023-04-08T18:53:37.415Z,5.37
2023-04-08T18:56:06.075Z,5.36
2023-04-08T18:58:34.680Z,5.36
2023-04-08T19:01:08.102Z,5.33
2023-04-08T19:03:38.877Z,5.33
2023-04-08T19:06:07.865Z,5.32
2023-04-08T19:08:36.690Z,5.30
2023-04-08T19:11:07.416Z,5.30
2023-04-08T19:13:36.195Z,5.29
2023-04-08T19:16:08.863Z,5.29
2023-04-08T19:18:39.281Z,5.27
2023-04-08T19:21:08.082Z,5.24
2023-04-08T19:23:37.124Z,5.24
2023-04-08T19:26:06.538Z,5.23
2023-04-08T19:28:35.177Z,5.26
2023-04-08T19:31:04.404Z,5.26
2023-04-08T19:33:32.951Z,5.27
2023-04-08T19:36:03.389Z,5.29
2023-04-08T19:38:32.357Z,5.26
2023-04-08T19:41:02.496Z,5.25
2023-04-08T19:43:31.546Z,5.22
2023-04-08T19:46:00.155Z,5.22
2023-04-08T19:48:28.927Z,5.24
2023-04-08T19:50:57.543Z,5.23
2023-04-08T19:53:27.845Z,5.22
2023-04-08T19:56:01.370Z,5.21
2023-04-08T19:58:30.022Z,5.22
2023-04-08T20:00:58.798Z,5.22
2023-04-08T20:03:27.936Z,5.21
2023-04-08T20:05:57.651Z,5.18
2023-04-08T20:08:27.918Z,5.15
2023-04-08T20:10:56.774Z,5.11
2023-04-08T20:13:26.164Z,5.07
2023-04-08T20:15:54.583Z,5.07
2023-04-08T20:18:23.037Z,5.06
2023-04-08T20:20:51.681Z,5.06
2023-04-08T20:23:20.988Z,5.04
2023-04-08T20:25:51.017Z,5.03
2023-04-08T20:28:19.530Z,5.01
2023-04-08T20:30:54.633Z,4.99
2023-04-08T20:33:23.884Z,4.97
2023-04-08T20:35:53.413Z,4.96
2023-04-08T20:38:23.303Z,4.94
2023-04-08T20:40:54.064Z,4.93
2023-04-08T20:43:22.849Z,4.91
2023-04-08T20:45:51.301Z,4.91
2023-04-08T20:48:20.540Z,4.91
2023-04-08T20:50:50.175Z,4.90
2023-04-08T20:53:19.782Z,4.89
2023-04-08T20:55:48.578Z,4.88
2023-04-08T20:58:19.001Z,4.88
2023-04-08T21:00:48.024Z,4.87
2023-04-08T21:03:17.315Z,4.88
2023-04-08T21:05:46.752Z,4.88
2023-04-08T21:08:15.618Z,4.85
2023-04-08T21:10:44.105Z,4.86
2023-04-08T21:13:13.097Z,4.81
2023-04-08T21:15:43.364Z,4.78
2023-04-08T21:18:11.902Z,4.78
2023-04-08T21:20:41.411Z,4.76
2023-04-08T21:23:10.505Z,4.75
2023-04-08T21:25:39.007Z,4.73
2023-04-08T21:28:08.145Z,4.71
2023-04-08T21:30:37.066Z,4.69
2023-04-08T21:33:07.563Z,4.67
2023-04-08T21:35:36.539Z,4.66
2023-04-08T21:38:05.161Z,4.65
2023-04-08T21:40:34.230Z,4.64
2023-04-08T21:43:03.116Z,4.63
2023-04-08T21:45:31.506Z,4.61
2023-04-08T21:48:00.296Z,4.59
2023-04-08T21:50:32.553Z,4.57
2023-04-08T21:53:01.332Z,4.57
2023-04-08T21:55:30.546Z,4.56
2023-04-08T21:57:59.404Z,4.56
2023-04-08T22:00:28.206Z,4.55
2023-04-08T22:02:56.764Z,4.53
2023-04-08T22:05:25.231Z,4.52
2023-04-08T22:07:55.380Z,4.54
2023-04-08T22:10:24.091Z,4.53
2023-04-08T22:12:52.646Z,4.50
2023-04-08T22:15:22.302Z,4.56
2023-04-08T22:17:51.062Z,4.56
2023-04-08T22:20:19.989Z,4.55
2023-04-08T22:22:48.701Z,4.57
2023-04-08T22:25:18.939Z,4.56
2023-04-08T22:27:47.540Z,4.55
2023-04-08T22:30:16.433Z,4.56
2023-04-08T22:32:45.083Z,4.53
2023-04-08T22:35:13.626Z,4.55
2023-04-08T22:37:42.524Z,4.54
2023-04-08T22:40:11.614Z,4.59
2023-04-08T22:42:41.366Z,4.59
2023-04-08T22:45:10.526Z,4.61
2023-04-08T22:47:39.110Z,4.63
2023-04-08T22:50:09.204Z,4.61
2023-04-08T22:52:37.793Z,4.64
2023-04-08T22:55:07.438Z,4.64
2023-04-08T22:57:36.266Z,4.63
2023-04-08T23:00:07.720Z,4.62
2023-04-08T23:02:37.695Z,4.61
2023-04-08T23:05:07.065Z,4.58
2023-04-08T23:07:35.887Z,4.64
2023-04-08T23:10:04.857Z,4.66
2023-04-08T23:12:33.938Z,4.67
2023-04-08T23:15:03.878Z,4.67
2023-04-08T23:17:33.737Z,4.62
2023-04-08T23:20:02.860Z,4.59
2023-04-08T23:22:31.873Z,4.62
2023-04-08T23:25:00.270Z,4.56
2023-04-08T23:27:30.177Z,4.58
2023-04-08T23:30:05.511Z,4.55
2023-04-08T23:32:36.476Z,4.50
2023-04-08T23:35:05.473Z,4.51
2023-04-08T23:37:34.034Z,4.42
2023-04-08T23:40:03.012Z,4.49
2023-04-08T23:42:31.649Z,4.50
2023-04-08T23:45:00.072Z,4.44
2023-04-08T23:47:29.089Z,4.46
2023-04-08T23:50:00.012Z,4.49
2023-04-08T23:52:28.961Z,4.44
2023-04-08T23:54:58.401Z,4.44
2023-04-08T23:57:27.200Z,4.41
2023-04-08T23:59:55.783Z,4.34
